createdAt,value
2022-12-22T00:01:50.343Z,97405.22
2022-12-22T00:04:35.915Z,97402.78
2022-12-22T00:07:21.015Z,97400.47
2022-12-22T00:10:06.176Z,97403.22
2022-12-22T00:12:51.595Z,97395.56
2022-12-22T00:15:36.686Z,97391.78
2022-12-22T00:18:21.887Z,97396.34
2022-12-22T00:21:07.048Z,97398.66
2022-12-22T00:23:52.771Z,97398.19
2022-12-22T00:26:37.900Z,97386.94
2022-12-22T00:29:23.097Z,97381.09
2022-12-22T00:32:08.136Z,97379.38
2022-12-22T00:34:58.746Z,97386.25
2022-12-22T00:37:52.127Z,97384.19
2022-12-22T00:40:38.862Z,97371.56
2022-12-22T00:43:24.176Z,97371.91
2022-12-22T00:46:09.599Z,97374.31
2022-12-22T00:48:54.784Z,97374.66
2022-12-22T00:51:39.878Z,97373.53
2022-12-22T00:54:28.030Z,97371.22
2022-12-22T00:57:13.340Z,97371.50
2022-12-22T00:59:58.411Z,97376.38
2022-12-22T01:02:43.586Z,97362.03
2022-12-22T01:05:28.825Z,97358.47
2022-12-22T01:08:14.030Z,97353.66
2022-12-22T01:10:59.180Z,97351.94
2022-12-22T01:13:44.266Z,97364.03
2022-12-22T01:16:30.125Z,97352.22
2022-12-22T01:19:15.309Z,97353.22
2022-12-22T01:22:00.444Z,97355.50
2022-12-22T01:24:45.947Z,97347.25
2022-12-22T01:27:31.685Z,97343.22
2022-12-22T01:30:16.801Z,97344.59
2022-12-22T01:33:01.919Z,97332.13
2022-12-22T01:35:48.936Z,97328.56
2022-12-22T01:38:34.084Z,97328.88
2022-12-22T01:41:19.195Z,97329.34
2022-12-22T01:44:04.250Z,97323.72
2022-12-22T01:46:59.552Z,97333.69
2022-12-22T01:49:47.650Z,97334.50
2022-12-22T01:52:34.692Z,97321.19
2022-12-22T01:55:21.949Z,97331.16
2022-12-22T01:58:07.108Z,97322.44
2022-12-22T02:00:52.691Z,97315.53
2022-12-22T02:03:39.609Z,97309.06
2022-12-22T02:06:40.878Z,97320.31
2022-12-22T02:09:54.264Z,97312.59
2022-12-22T02:13:02.643Z,97315.63
2022-12-22T02:15:57.933Z,97312.97
2022-12-22T02:19:16.597Z,97291.63
2022-12-22T02:22:15.943Z,97295.75
2022-12-22T02:25:05.011Z,97291.34
2022-12-22T02:27:50.145Z,97286.44
2022-12-22T02:30:35.195Z,97289.72
2022-12-22T02:33:20.338Z,97285.03
2022-12-22T02:36:20.611Z,97283.75
2022-12-22T02:39:24.008Z,97275.72
2022-12-22T02:42:24.340Z,97255.00
2022-12-22T02:45:32.835Z,97255.78
2022-12-22T02:48:41.741Z,97259.06
2022-12-22T02:51:35.999Z,97256.06
2022-12-22T02:54:21.076Z,97252.25
2022-12-22T02:57:06.227Z,97249.97
2022-12-22T02:59:51.251Z,97245.50
2022-12-22T03:02:36.603Z,97236.78
2022-12-22T03:05:21.945Z,97239.66
2022-12-22T03:08:08.720Z,97239.66
2022-12-22T03:10:54.064Z,97248.47
2022-12-22T03:13:39.246Z,97237.34
2022-12-22T03:16:24.247Z,97227.63
2022-12-22T03:19:09.534Z,97222.91
2022-12-22T03:21:54.677Z,97221.06
2022-12-22T03:24:40.163Z,97204.72
2022-12-22T03:27:06.632Z,97194.38
2022-12-22T03:29:33.108Z,97204.06
2022-12-22T03:31:59.646Z,97200.84
2022-12-22T03:34:26.228Z,97200.25
2022-12-22T03:36:52.692Z,97198.28
2022-12-22T03:39:19.226Z,97192.16
2022-12-22T03:42:04.314Z,97192.31
2022-12-22T03:44:49.067Z,97192.06
2022-12-22T03:47:15.583Z,97184.75
2022-12-22T03:49:42.108Z,97180.69
2022-12-22T03:52:08.578Z,97186.81
2022-12-22T03:54:35.128Z,97175.25
2022-12-22T03:57:01.599Z,97155.41
2022-12-22T03:59:28.070Z,97165.81
2022-12-22T04:01:54.834Z,97166.34
2022-12-22T04:04:23.542Z,97166.00
2022-12-22T04:06:50.004Z,97161.19
2022-12-22T04:09:16.523Z,97159.16
2022-12-22T04:12:01.827Z,97154.63
2022-12-22T04:14:33.907Z,97153.19
2022-12-22T04:17:02.292Z,97157.38
2022-12-22T04:19:28.812Z,97149.09
2022-12-22T04:21:55.283Z,97143.31
2022-12-22T04:24:22.319Z,97149.44
2022-12-22T04:26:49.234Z,97146.34
2022-12-22T04:29:15.780Z,97144.28
2022-12-22T04:31:42.293Z,97137.69
2022-12-22T04:34:08.817Z,97136.09
2022-12-22T04:36:35.280Z,97134.38
2022-12-22T04:39:01.764Z,97125.94
2022-12-22T04:41:28.243Z,97127.00
2022-12-22T04:43:54.706Z,97126.13
2022-12-22T04:46:21.227Z,97125.59
2022-12-22T04:48:47.750Z,97117.22
2022-12-22T04:51:14.248Z,97116.06
2022-12-22T04:53:40.738Z,97113.88
2022-12-22T04:56:07.699Z,97114.19
2022-12-22T04:58:34.548Z,97114.19
2022-12-22T05:01:14.580Z,97106.25
2022-12-22T05:03:41.212Z,97100.75
2022-12-22T05:06:08.074Z,97103.25
2022-12-22T05:08:34.646Z,97099.94
2022-12-22T05:11:02.808Z,97096.84
2022-12-22T05:13:30.487Z,97093.84
2022-12-22T05:16:32.503Z,97092.63
2022-12-22T05:18:59.014Z,97086.59
2022-12-22T05:21:25.475Z,97088.19
2022-12-22T05:23:52.230Z,97079.19
2022-12-22T05:26:18.981Z,97080.38
2022-12-22T05:28:46.357Z,97073.66
2022-12-22T05:31:17.732Z,97075.66
2022-12-22T05:33:44.466Z,97069.91
2022-12-22T05:36:11.118Z,97071.94
2022-12-22T05:38:38.501Z,97069.53
2022-12-22T05:41:05.088Z,97064.81
2022-12-22T05:43:32.538Z,97063.31
2022-12-22T05:46:04.764Z,97068.91
2022-12-22T05:48:37.499Z,97056.63
2022-12-22T05:51:05.617Z,97060.38
2022-12-22T05:53:32.098Z,97054.94
2022-12-22T05:55:58.557Z,97058.72
2022-12-22T05:58:25.030Z,97060.28
2022-12-22T06:00:51.503Z,97046.53
2022-12-22T06:03:18.103Z,97053.34
2022-12-22T06:05:44.664Z,97052.13
2022-12-22T06:08:11.126Z,97049.00
2022-12-22T06:10:37.611Z,97052.03
2022-12-22T06:13:04.068Z,97044.72
2022-12-22T06:15:30.527Z,97052.19
2022-12-22T06:17:56.989Z,97042.75
2022-12-22T06:20:23.483Z,97047.03
2022-12-22T06:22:49.967Z,97045.81
2022-12-22T06:25:18.720Z,97048.63
2022-12-22T06:27:45.932Z,97048.28
2022-12-22T06:30:12.649Z,97036.00
2022-12-22T06:32:39.222Z,97036.72
2022-12-22T06:35:07.084Z,97032.53
2022-12-22T06:37:33.584Z,97030.56
2022-12-22T06:40:00.113Z,97034.69
2022-12-22T06:42:45.185Z,97036.81
2022-12-22T06:45:11.700Z,97033.03
2022-12-22T06:47:38.176Z,97027.50
2022-12-22T06:50:05.283Z,97034.69
2022-12-22T06:52:31.774Z,97031.88
2022-12-22T06:54:58.244Z,97030.56
2022-12-22T06:57:24.697Z,97032.97
2022-12-22T06:59:57.288Z,97030.69
2022-12-22T07:02:24.335Z,97034.31
2022-12-22T07:04:50.956Z,97032.22
2022-12-22T07:07:17.671Z,97032.97
2022-12-22T07:09:44.175Z,97032.59
2022-12-22T07:12:10.666Z,97029.47
2022-12-22T07:14:37.137Z,97027.88
2022-12-22T07:17:03.654Z,97023.63
2022-12-22T07:19:30.141Z,97023.28
2022-12-22T07:21:56.900Z,97022.03
2022-12-22T07:24:25.835Z,97018.56
2022-12-22T07:26:52.578Z,97018.13
2022-12-22T07:29:19.070Z,97020.38
2022-12-22T07:31:45.588Z,97022.78
2022-12-22T07:34:12.105Z,97020.03
2022-12-22T07:36:38.560Z,97024.16
2022-12-22T07:39:05.018Z,97021.59
2022-12-22T07:41:50.115Z,97022.00
2022-12-22T07:44:16.575Z,97014.13
2022-12-22T07:46:43.063Z,97017.03
2022-12-22T07:49:28.966Z,97020.84
2022-12-22T07:51:58.863Z,97013.03
2022-12-22T07:54:25.534Z,97024.59
2022-12-22T07:56:52.225Z,97022.19
2022-12-22T07:59:19.022Z,97022.00
2022-12-22T08:01:45.823Z,97020.03
2022-12-22T08:04:13.177Z,97027.88
2022-12-22T08:06:39.698Z,97026.91
2022-12-22T08:09:06.568Z,97033.16
2022-12-22T08:11:33.109Z,97030.75
2022-12-22T08:14:01.945Z,97030.84
2022-12-22T08:16:28.868Z,97036.78
2022-12-22T08:18:55.360Z,97042.59
2022-12-22T08:21:21.826Z,97034.41
2022-12-22T08:23:48.323Z,97035.47
2022-12-22T08:26:22.431Z,97042.91
2022-12-22T08:28:52.342Z,97046.41
2022-12-22T08:31:18.955Z,97028.59
2022-12-22T08:33:45.473Z,97040.44
2022-12-22T08:36:11.934Z,97040.44
2022-12-22T08:38:38.768Z,97045.59
2022-12-22T08:41:05.400Z,97042.13
2022-12-22T08:43:31.875Z,97040.88
2022-12-22T08:45:58.371Z,97050.31
2022-12-22T08:48:24.848Z,97052.19
2022-12-22T08:50:51.304Z,97053.00
2022-12-22T08:53:37.616Z,97053.88
2022-12-22T08:56:04.317Z,97057.72
2022-12-22T08:58:30.789Z,97059.75
2022-12-22T09:00:57.843Z,97056.03
2022-12-22T09:03:24.380Z,97059.53
2022-12-22T09:05:50.876Z,97062.81
2022-12-22T09:08:17.374Z,97055.41
2022-12-22T09:10:43.997Z,97062.09
2022-12-22T09:13:10.501Z,97067.59
2022-12-22T09:15:37.180Z,97074.00
2022-12-22T09:18:03.674Z,97069.13
2022-12-22T09:20:30.142Z,97069.47
2022-12-22T09:22:56.627Z,97072.59
2022-12-22T09:25:23.092Z,97077.69
2022-12-22T09:27:49.565Z,97078.13
2022-12-22T09:30:16.081Z,97076.78
2022-12-22T09:32:42.583Z,97078.00
2022-12-22T09:35:09.216Z,97087.50
2022-12-22T09:37:35.700Z,97094.25
2022-12-22T09:40:02.171Z,97091.59
2022-12-22T09:42:28.667Z,97096.03
2022-12-22T09:44:55.206Z,97097.63
2022-12-22T09:47:37.809Z,97094.69
2022-12-22T09:50:08.814Z,97105.66
2022-12-22T09:52:35.173Z,97111.53
2022-12-22T09:55:02.307Z,97106.03
2022-12-22T09:57:32.200Z,97116.88
2022-12-22T10:00:02.338Z,97127.19
2022-12-22T10:02:34.879Z,97135.19
2022-12-22T10:05:28.215Z,97138.47
2022-12-22T10:07:59.227Z,97139.53
2022-12-22T10:10:31.248Z,97142.81
2022-12-22T10:13:01.372Z,97142.03
2022-12-22T10:15:35.037Z,97147.78
2022-12-22T10:18:16.072Z,97141.44
2022-12-22T10:20:44.777Z,97146.59
2022-12-22T10:23:20.735Z,97150.19
2022-12-22T10:28:47.732Z,97158.59
2022-12-22T10:31:23.423Z,97172.13
2022-12-22T10:33:51.616Z,97176.31
2022-12-22T10:36:32.194Z,97171.84
2022-12-22T10:39:03.324Z,97165.06
2022-12-22T10:41:36.552Z,97163.28
2022-12-22T10:44:06.478Z,97168.91
2022-12-22T10:46:35.643Z,97167.91
2022-12-22T10:49:27.716Z,97171.16
2022-12-22T10:52:08.980Z,97169.34
2022-12-22T10:54:38.425Z,97166.41
2022-12-22T10:57:13.854Z,97175.50
2022-12-22T10:59:51.011Z,97169.06
2022-12-22T11:02:37.886Z,97180.84
2022-12-22T11:05:11.408Z,97174.88
2022-12-22T11:07:42.731Z,97185.47
2022-12-22T11:10:34.025Z,97180.75
2022-12-22T11:13:20.841Z,97201.13
2022-12-22T11:16:05.850Z,97190.59
2022-12-22T11:19:18.220Z,97200.63
2022-12-22T11:21:50.373Z,97206.88
2022-12-22T11:24:39.815Z,97209.50
2022-12-22T11:27:42.271Z,97210.16
2022-12-22T11:30:24.640Z,97222.41
2022-12-22T11:33:00.508Z,97225.13
2022-12-22T11:35:41.402Z,97232.63
2022-12-22T11:38:49.986Z,97245.25
2022-12-22T11:41:32.958Z,97255.69
2022-12-22T11:44:25.179Z,97255.25
2022-12-22T11:47:00.383Z,97248.84
2022-12-22T11:49:30.999Z,97252.84
2022-12-22T11:52:00.363Z,97262.19
2022-12-22T11:54:40.758Z,97265.50
2022-12-22T11:57:28.073Z,97263.63
2022-12-22T12:00:14.347Z,97262.59
2022-12-22T12:02:56.065Z,97271.13
2022-12-22T12:05:42.589Z,97259.72
2022-12-22T12:08:21.785Z,97265.81
2022-12-22T12:10:51.772Z,97275.94
2022-12-22T12:13:36.508Z,97279.50
2022-12-22T12:16:18.626Z,97286.63
2022-12-22T12:19:12.263Z,97278.06
2022-12-22T12:21:45.886Z,97277.44
2022-12-22T12:24:40.606Z,97277.81
2022-12-22T12:27:28.576Z,97282.88
2022-12-22T12:33:34.883Z,97288.53
2022-12-22T12:36:22.080Z,97283.63
2022-12-22T12:39:07.570Z,97286.72
2022-12-22T12:41:59.243Z,97293.69
2022-12-22T12:44:27.616Z,97300.16
2022-12-22T12:46:56.495Z,97309.41
2022-12-22T12:49:35.331Z,97314.91
2022-12-22T12:52:04.807Z,97312.44
2022-12-22T12:54:35.833Z,97316.88
2022-12-22T12:57:11.407Z,97319.72
2022-12-22T12:59:41.088Z,97315.00
2022-12-22T13:02:28.086Z,97307.06
2022-12-22T13:05:18.276Z,97318.22
2022-12-22T13:08:14.213Z,97320.00
2022-12-22T13:10:48.639Z,97312.69
2022-12-22T13:13:27.091Z,97306.94
2022-12-22T13:16:02.941Z,97309.03
2022-12-22T13:18:29.521Z,97301.91
2022-12-22T13:21:50.887Z,97290.13
2022-12-22T13:26:44.052Z,97281.44
2022-12-22T13:29:22.816Z,97275.56
2022-12-22T13:32:11.416Z,97264.59
2022-12-22T13:35:28.895Z,97265.75
2022-12-22T13:37:45.242Z,97260.69
2022-12-22T13:40:22.490Z,97261.72
2022-12-22T13:42:52.824Z,97272.41
2022-12-22T13:45:29.901Z,97277.38
2022-12-22T13:47:56.407Z,97272.09
2022-12-22T13:50:28.367Z,97278.25
2022-12-22T13:52:54.854Z,97282.34
2022-12-22T13:55:27.239Z,97284.84
2022-12-22T13:57:58.423Z,97283.50
2022-12-22T14:00:26.294Z,97283.69
2022-12-22T14:02:52.934Z,97283.59
2022-12-22T14:05:19.653Z,97282.56
2022-12-22T14:08:05.651Z,97282.72
2022-12-22T14:10:41.484Z,97290.31
2022-12-22T14:13:14.062Z,97294.69
2022-12-22T14:15:40.540Z,97300.09
2022-12-22T14:18:07.029Z,97303.41
2022-12-22T14:20:37.281Z,97306.06
2022-12-22T14:23:05.797Z,97298.97
2022-12-22T14:25:41.909Z,97306.44
2022-12-22T14:28:29.989Z,97313.66
2022-12-22T14:30:58.447Z,97313.31
2022-12-22T14:33:27.573Z,97314.00
2022-12-22T14:36:16.938Z,97320.59
2022-12-22T14:38:47.917Z,97331.91
2022-12-22T14:41:41.927Z,97338.41
2022-12-22T14:44:40.466Z,97346.56
2022-12-22T14:47:11.901Z,97342.66
2022-12-22T14:49:46.449Z,97350.78
2022-12-22T14:52:26.568Z,97346.81
2022-12-22T14:54:53.655Z,97351.00
2022-12-22T14:57:29.229Z,97351.13
2022-12-22T15:00:00.604Z,97346.94
2022-12-22T15:02:38.628Z,97346.38
2022-12-22T15:05:10.776Z,97354.38
2022-12-22T15:08:06.204Z,97350.03
2022-12-22T15:10:40.309Z,97348.47
2022-12-22T15:13:10.805Z,97353.56
2022-12-22T15:15:37.276Z,97353.81
2022-12-22T15:18:03.833Z,97345.66
2022-12-22T15:20:37.017Z,97347.56
2022-12-22T15:23:12.410Z,97361.00
2022-12-22T15:25:38.879Z,97362.13
2022-12-22T15:28:05.363Z,97359.91
2022-12-22T15:30:32.194Z,97370.22
2022-12-22T15:32:58.693Z,97367.38
2022-12-22T15:35:28.765Z,97374.03
2022-12-22T15:37:55.235Z,97386.53
2022-12-22T15:40:22.331Z,97392.38
2022-12-22T15:42:49.459Z,97396.38
2022-12-22T15:45:16.268Z,97404.34
2022-12-22T15:47:43.773Z,97405.69
2022-12-22T15:50:19.101Z,97403.78
2022-12-22T15:52:47.817Z,97413.66
2022-12-22T15:55:15.108Z,97413.31
2022-12-22T15:57:41.938Z,97419.50
2022-12-22T16:00:11.466Z,97413.28
2022-12-22T16:02:38.126Z,97419.09
2022-12-22T16:05:04.969Z,97427.34
2022-12-22T16:07:31.448Z,97441.53
2022-12-22T16:09:58.832Z,97424.84
2022-12-22T16:12:25.371Z,97426.34
2022-12-22T16:14:53.331Z,97426.03
2022-12-22T16:17:21.482Z,97423.94
2022-12-22T16:19:47.944Z,97422.03
2022-12-22T16:22:14.492Z,97418.81
2022-12-22T16:24:41.252Z,97414.09
2022-12-22T16:27:09.376Z,97420.53
2022-12-22T16:29:35.849Z,97412.84
2022-12-22T16:32:21.564Z,97415.72
2022-12-22T16:34:48.616Z,97418.25
2022-12-22T16:37:15.116Z,97422.19
2022-12-22T16:39:41.575Z,97423.75
2022-12-22T16:45:02.085Z,97415.19
2022-12-22T16:47:33.792Z,97410.63
2022-12-22T16:50:00.434Z,97405.41
2022-12-22T16:52:31.223Z,97406.66
2022-12-22T16:54:57.742Z,97407.00
2022-12-22T16:57:24.225Z,97399.69
2022-12-22T16:59:50.720Z,97406.22
2022-12-22T17:02:28.496Z,97400.34
2022-12-22T17:04:55.640Z,97397.09
2022-12-22T17:07:22.092Z,97400.50
2022-12-22T17:09:52.657Z,97396.75
2022-12-22T17:12:21.291Z,97397.41
2022-12-22T17:14:47.793Z,97394.44
2022-12-22T17:17:18.273Z,97388.44
2022-12-22T17:19:44.861Z,97385.25
2022-12-22T17:22:30.860Z,97385.56
2022-12-22T17:24:59.321Z,97382.16
2022-12-22T17:27:27.497Z,97380.81
2022-12-22T17:29:53.947Z,97377.81
2022-12-22T17:32:20.828Z,97377.69
2022-12-22T17:34:47.700Z,97360.81
2022-12-22T17:37:23.310Z,97379.28
2022-12-22T17:39:51.406Z,97384.94
2022-12-22T17:42:18.807Z,97380.59
2022-12-22T17:44:45.667Z,97376.84
2022-12-22T17:47:16.324Z,97365.97
2022-12-22T17:49:44.068Z,97369.50
2022-12-22T17:52:18.228Z,97359.19
2022-12-22T17:54:45.749Z,97353.63
2022-12-22T17:57:24.569Z,97360.94
2022-12-22T17:59:51.042Z,97373.19
2022-12-22T18:02:18.453Z,97365.75
2022-12-22T18:04:45.314Z,97371.06
2022-12-22T18:07:11.973Z,97365.38
2022-12-22T18:09:38.460Z,97362.28
2022-12-22T18:12:16.055Z,97367.56
2022-12-22T18:14:43.544Z,97362.59
2022-12-22T18:17:21.091Z,97360.69
2022-12-22T18:19:47.554Z,97349.03
2022-12-22T18:22:32.538Z,97347.53
2022-12-22T18:24:59.010Z,97343.50
2022-12-22T18:27:25.553Z,97353.16
2022-12-22T18:29:52.079Z,97341.06
2022-12-22T18:32:25.467Z,97346.19
2022-12-22T18:34:54.145Z,97345.38
2022-12-22T18:37:20.634Z,97335.72
2022-12-22T18:39:47.097Z,97328.84
2022-12-22T18:42:22.292Z,97327.91
2022-12-22T18:44:49.159Z,97331.66
2022-12-22T18:47:15.747Z,97332.13
2022-12-22T18:49:42.360Z,97324.34
2022-12-22T18:52:19.315Z,97320.94
2022-12-22T18:54:45.845Z,97322.75
2022-12-22T18:57:13.861Z,97311.44
2022-12-22T18:59:40.345Z,97308.44
2022-12-22T19:02:22.424Z,97301.44
2022-12-22T19:04:54.341Z,97305.31
2022-12-22T19:07:22.347Z,97306.44
2022-12-22T19:09:49.150Z,97307.00
2022-12-22T19:12:20.687Z,97299.47
2022-12-22T19:14:47.790Z,97306.81
2022-12-22T19:17:20.044Z,97294.00
2022-12-22T19:19:46.676Z,97283.44
2022-12-22T19:22:14.291Z,97285.41
2022-12-22T19:24:46.861Z,97283.34
2022-12-22T19:27:24.923Z,97273.50
2022-12-22T19:29:58.823Z,97271.22
2022-12-22T19:32:30.327Z,97277.78
2022-12-22T19:34:56.873Z,97277.09
2022-12-22T19:37:23.353Z,97275.03
2022-12-22T19:39:49.827Z,97278.22
2022-12-22T19:42:18.843Z,97275.59
2022-12-22T19:44:45.307Z,97275.00
2022-12-22T19:47:19.503Z,97274.44
2022-12-22T19:49:45.997Z,97276.28
2022-12-22T19:52:12.473Z,97267.19
2022-12-22T19:54:38.974Z,97262.41
2022-12-22T19:57:06.704Z,97263.78
2022-12-22T19:59:47.011Z,97253.91
2022-12-22T20:02:32.143Z,97252.28
2022-12-22T20:04:58.995Z,97245.44
2022-12-22T20:07:26.550Z,97243.00
2022-12-22T20:09:53.072Z,97233.25
2022-12-22T20:12:36.535Z,97235.78
2022-12-22T20:15:16.067Z,97232.34
2022-12-22T20:17:42.539Z,97233.69
2022-12-22T20:20:16.162Z,97226.13
2022-12-22T20:22:46.851Z,97223.47
2022-12-22T20:25:17.090Z,97224.75
2022-12-22T20:27:43.488Z,97218.19
2022-12-22T20:30:16.413Z,97213.22
2022-12-22T20:32:42.871Z,97214.25
2022-12-22T20:35:09.322Z,97213.44
2022-12-22T20:37:35.829Z,97208.38
2022-12-22T20:40:02.303Z,97206.22
2022-12-22T20:42:28.786Z,97199.44
2022-12-22T20:45:02.317Z,97201.97
2022-12-22T20:47:30.027Z,97194.41
2022-12-22T20:49:56.565Z,97196.03
2022-12-22T20:52:23.022Z,97198.41
2022-12-22T20:54:49.579Z,97187.63
2022-12-22T20:57:16.081Z,97185.53
2022-12-22T20:59:43.330Z,97188.41
2022-12-22T21:02:23.170Z,97184.19
2022-12-22T21:04:49.884Z,97177.41
2022-12-22T21:07:16.632Z,97170.97
2022-12-22T21:09:43.113Z,97167.44
2022-12-22T21:12:09.618Z,97166.38
2022-12-22T21:14:36.089Z,97172.59
2022-12-22T21:17:02.651Z,97163.06
2022-12-22T21:19:29.449Z,97166.53
2022-12-22T21:21:55.903Z,97166.16
2022-12-22T21:24:22.436Z,97157.19
2022-12-22T21:26:50.320Z,97149.28
2022-12-22T21:29:19.418Z,97148.31
2022-12-22T21:31:45.891Z,97141.38
2022-12-22T21:34:12.370Z,97145.00
2022-12-22T21:36:38.910Z,97141.09
2022-12-22T21:39:33.877Z,97138.25
2022-12-22T21:42:00.382Z,97131.16
2022-12-22T21:44:31.337Z,97131.59
2022-12-22T21:46:57.956Z,97130.09
2022-12-22T21:49:26.622Z,97122.72
2022-12-22T21:51:53.521Z,97127.63
2022-12-22T21:54:20.465Z,97127.47
2022-12-22T21:56:47.011Z,97127.81
2022-12-22T21:59:13.751Z,97129.41
2022-12-22T22:01:41.157Z,97127.81
2022-12-22T22:04:07.790Z,97130.56
2022-12-22T22:06:34.242Z,97128.81
2022-12-22T22:09:00.886Z,97121.25
2022-12-22T22:11:27.357Z,97121.09
2022-12-22T22:13:53.828Z,97121.88
2022-12-22T22:16:20.368Z,97118.69
2022-12-22T22:18:47.232Z,97114.78
2022-12-22T22:21:14.422Z,97117.09
2022-12-22T22:23:40.897Z,97116.38
2022-12-22T22:26:07.435Z,97117.09
2022-12-22T22:28:33.933Z,97109.16
2022-12-22T22:31:00.793Z,97115.13
2022-12-22T22:33:27.351Z,97104.91
2022-12-22T22:35:53.952Z,97100.91
2022-12-22T22:38:20.976Z,97097.00
2022-12-22T22:40:47.824Z,97104.66
2022-12-22T22:43:14.604Z,97107.47
2022-12-22T22:45:41.531Z,97105.88
2022-12-22T22:48:11.090Z,97093.97
2022-12-22T22:50:40.475Z,97097.25
2022-12-22T22:53:06.932Z,97104.44
2022-12-22T22:55:33.412Z,97092.53
2022-12-22T22:57:59.880Z,97085.06
2022-12-22T23:00:26.375Z,97094.84
2022-12-22T23:02:52.928Z,97086.75
2022-12-22T23:05:22.961Z,97071.72
2022-12-22T23:07:49.664Z,97071.22
2022-12-22T23:10:16.163Z,97076.88
2022-12-22T23:12:42.662Z,97070.22
2022-12-22T23:15:09.470Z,97069.75
2022-12-22T23:17:35.960Z,97084.56
2022-12-22T23:20:02.510Z,97078.84
2022-12-22T23:22:28.983Z,97078.56
2022-12-22T23:24:55.467Z,97083.63
2022-12-22T23:27:21.965Z,97079.09
2022-12-22T23:29:48.437Z,97072.00
2022-12-22T23:32:14.930Z,97081.84
2022-12-22T23:34:41.408Z,97070.28
2022-12-22T23:37:10.959Z,97073.38
2022-12-22T23:39:39.955Z,97073.66
2022-12-22T23:42:06.425Z,97073.19
2022-12-22T23:44:32.896Z,97078.94
2022-12-22T23:46:59.450Z,97064.13
2022-12-22T23:49:25.977Z,97064.84
2022-12-22T23:51:52.543Z,97065.63
2022-12-22T23:54:19.006Z,97063.03
2022-12-22T23:56:45.508Z,97061.31
2022-12-22T23:59:11.968Z,97054.91
